Flight Track Log - Related Links

Times and Time Zones

All times are in EDT time to prevent confusion due to time zone crossing. See the UCA4769 flight status page for this flight to view local times or setup timezone preferences in your user account.

Time Position Orientation Groundspeed Altitude Reporting Facility
EDT Latitude Longitude Course Direction KTS MPH feet Rate Location/Type
Tue 03:41:16 PM 41.3981 -81.8731 305° West 129 148 1,600  Level Cleveland Center
Tue 03:42:23 PM 41.4228 -81.9206 319° Northwest 171 197 3,100 1,457 Climbing Cleveland Center
Tue 03:43:36 PM 41.4658 -81.9714 343° North 180 207 5,000 992 Climbing Cleveland Center
Tue 03:44:36 PM 41.5094 -81.9889 50° Northeast 185 213 5,300 550 Climbing Cleveland Center
Tue 03:45:36 PM 41.5519 -81.9206 53° Northeast 154 177 6,100 350 Climbing Cleveland Center
Tue 03:46:36 PM 41.5903 -81.8519 18° North 181 208 6,000 200 Descending Cleveland Center
Tue 03:47:36 PM 41.6447 -81.8281 23° Northeast 197 227 6,500 800 Climbing Cleveland Center
Tue 03:48:36 PM 41.6972 -81.7983 66° East 202 232 7,600 1,000 Climbing Cleveland Center
Tue 03:49:36 PM 41.7272 -81.7100 62° Northeast 216 249 8,500 950 Climbing Cleveland Center
Tue 03:50:36 PM 41.7614 -81.6242 65° Northeast 235 270 9,500 1,050 Climbing Cleveland Center
Tue 03:51:36 PM 41.7914 -81.5383 68° East 251 289 10,600 1,100 Climbing Cleveland Center
Tue 03:52:36 PM 41.8192 -81.4469 69° East 256 295 11,700 1,000 Climbing Cleveland Center
Tue 03:53:36 PM 41.8447 -81.3553 71° East 256 295 12,600 1,000 Climbing Cleveland Center
Tue 03:54:36 PM 41.8683 -81.2606 69° East 261 300 13,700 1,000 Climbing Cleveland Center
Tue 03:55:36 PM 41.8939 -81.1717 70° East 261 300 14,600 1,100 Climbing Cleveland Center
Tue 03:56:36 PM 41.9172 -81.0856 71° East 261 300 15,900 1,050 Climbing Cleveland Center
Tue 03:57:36 PM 41.9383 -81.0047 71° East 251 289 16,700 850 Climbing Cleveland Center
Tue 03:58:36 PM 41.9594 -80.9211 71° East 245 282 17,600 800 Climbing Cleveland Center
Tue 03:59:36 PM 41.9825 -80.8317 69° East 245 282 18,300 700 Climbing Cleveland Center
Tue 04:00:36 PM 42.0078 -80.7425 69° East 250 288 19,000 800 Climbing Cleveland Center
Tue 04:01:36 PM 42.0328 -80.6531 72° East 250 288 19,900 750 Climbing Cleveland Center
Tue 04:02:36 PM 42.0558 -80.5581 71° East 250 288 20,500 550 Climbing Cleveland Center
Tue 04:03:36 PM 42.0808 -80.4572 70° East 250 288 21,000 250 Climbing Cleveland Center
Tue 04:04:36 PM 42.1078 -80.3564 71° East 268 308 21,000  Level Cleveland Center
Tue 04:05:36 PM 42.1347 -80.2528 71° East 282 325 21,000  Level Cleveland Center
Tue 04:06:36 PM 42.1614 -80.1461 70° East 287 330 21,000  Level Cleveland Center
Tue 04:07:36 PM 42.1900 -80.0422 71° East 293 337 21,000  Level Cleveland Center
Tue 04:08:36 PM 42.2147 -79.9467 70° East 293 337 21,000  Level Cleveland Center
Tue 04:09:36 PM 42.2431 -79.8400 72° East 293 337 21,000  Level Cleveland Center
Tue 04:10:36 PM 42.2694 -79.7331 73° East 293 337 21,000  Level Cleveland Center
Tue 04:11:36 PM 42.2936 -79.6261 67° East 293 337 21,000  Level Cleveland Center
Tue 04:12:36 PM 42.3261 -79.5244 62° Northeast 293 337 21,000  Level Cleveland Center
Tue 04:13:36 PM 42.3647 -79.4256 60° Northeast 288 331 21,000  Level Cleveland Center
Tue 04:14:36 PM 42.4056 -79.3292 62° Northeast 288 331 21,000  Level Cleveland Center
Tue 04:15:36 PM 42.4419 -79.2356 62° Northeast 293 337 21,000  Level Cleveland Center
Tue 04:16:36 PM 42.4844 -79.1275 63° Northeast 293 337 21,000  Level Cleveland Center
Tue 04:17:36 PM 42.5206 -79.0311 74° East 292 336 21,000  Level Cleveland Center
Tue 04:18:36 PM 42.5442 -78.9206 73° East 292 336 21,000  Level Cleveland Center
Tue 04:19:36 PM 42.5717 -78.8014 73° East 292 336 21,000  Level Cleveland Center
Tue 04:20:36 PM 42.5950 -78.6964 74° East 292 336 21,000  Level Cleveland Center
Tue 04:21:36 PM 42.6181 -78.5856 73° East 292 336 21,000  Level Cleveland Center
Tue 04:22:36 PM 42.6411 -78.4803 74° East 292 336 21,000  Level Cleveland Center
Tue 04:23:36 PM 42.6642 -78.3694 74° East 297 342 21,000  Level Cleveland Center
Tue 04:24:36 PM 42.6869 -78.2614 74° East 297 342 21,000  Level Cleveland Center
Tue 04:25:36 PM 42.7097 -78.1531 75° East 297 342 21,000  Level Cleveland Center
Tue 04:26:36 PM 42.7303 -78.0450 75° East 297 342 21,000  Level Cleveland Center
Tue 04:27:36 PM 42.7492 -77.9481 74° East 297 342 21,000  Level Cleveland Center
Tue 04:28:36 PM 42.7717 -77.8394 73° East 297 342 21,000 -400 Level Cleveland Center
Tue 04:29:36 PM 42.7958 -77.7281 75° East 297 342 20,200 -1,000 Descending Cleveland Center
Tue 04:30:36 PM 42.8200 -77.6053 74° East 302 348 19,000 -1,200 Descending Cleveland Center
Tue 04:31:36 PM 42.8442 -77.4908 75° East 307 353 17,800 -1,200 Descending Cleveland Center
Tue 04:32:36 PM 42.8661 -77.3792 75° East 302 348 16,600 -1,200 Descending Cleveland Center
Tue 04:33:36 PM 42.8878 -77.2675 74° East 302 348 15,400 -1,200 Descending Cleveland Center
Tue 04:34:36 PM 42.9117 -77.1531 75° East 302 348 14,200 -1,200 Descending Cleveland Center
Tue 04:36:31 PM 42.9511 -76.9483 75° East 301 346 11,900 -1,091 Descending Boston Center
Tue 04:37:32 PM 42.9744 -76.8308 75° East 294 338 11,000 -843 Descending Boston Center
Tue 04:38:32 PM 42.9950 -76.7272 86° East 284 327 10,200 -1,041 Descending Boston Center
Tue 04:39:33 PM 43.0011 -76.6197 89° East 289 333 8,900 -1,230 Descending Boston Center
Tue 04:40:34 PM 43.0028 -76.5147 90° East 278 320 7,700 -942 Descending Boston Center
Tue 04:41:34 PM 43.0022 -76.4125 90° East 269 310 7,000 -347 Descending Boston Center
Tue 04:42:35 PM 43.0017 -76.3103 90° East 266 306 7,000 -541 Level Boston Center
Tue 04:43:36 PM 43.0011 -76.2022 87° East 265 305 5,900 -992 Descending Boston Center
Tue 04:44:36 PM 43.0042 -76.1058 79° East 261 300 5,000 -446 Descending Boston Center
Tue 04:45:37 PM 43.0178 -76.0100 79° East 252 290 5,000 -492 Level Boston Center
Tue 04:46:38 PM 43.0308 -75.9197 79° East 240 276 4,000 -984 Descending Boston Center

Login

Don't have an account? Register now (free) for customized features, flight alerts, and more!